Time;durP1;ratioP1;P1;durP2;ratioP2;P2;SDS_P1;SDS_P2;PMS_P1;PMS_P2;Temp;Humidity;BMP_temperature;BMP_pressure;BME280_temperature;BME280_humidity;BME280_pressure;Samples;Min_cycle;Max_cycle;Signal;HPM_P1;HPM_P2
2023/03/03 00:00:28;;;;;;;47.63;17.98;;;3.60;99.90;;;;;;4664243;30;20212;-73
2023/03/03 00:02:59;;;;;;;85.78;19.70;;;3.60;99.90;;;;;;4666847;30;20192;-73
2023/03/03 00:05:25;;;;;;;50.78;17.38;;;3.60;99.90;;;;;;4681275;30;20291;-73
2023/03/03 00:07:51;;;;;;;113.40;19.67;;;3.60;99.90;;;;;;4676967;30;20313;-73
2023/03/03 00:10:16;;;;;;;74.43;20.48;;;3.60;99.90;;;;;;4663943;30;20201;-73
2023/03/03 00:12:48;;;;;;;119.38;21.00;;;3.60;99.90;;;;;;4665003;30;20226;-73
2023/03/03 00:15:21;;;;;;;102.18;21.02;;;3.60;99.90;;;;;;4674705;30;20205;-74
2023/03/03 00:17:46;;;;;;;68.40;18.67;;;3.60;99.90;;;;;;4666765;30;20232;-73
2023/03/03 00:20:26;;;;;;;53.47;18.75;;;3.50;99.90;;;;;;4640587;30;20794;-73
2023/03/03 00:22:51;;;;;;;63.63;19.77;;;3.50;99.90;;;;;;4654231;30;20654;-73
2023/03/03 00:25:28;;;;;;;67.88;18.02;;;3.50;99.90;;;;;;4682630;30;20193;-74
2023/03/03 00:27:55;;;;;;;50.88;17.35;;;3.50;99.90;;;;;;4672272;30;20399;-73
2023/03/03 00:30:25;;;;;;;61.75;17.90;;;3.50;99.90;;;;;;4671800;30;20319;-73
2023/03/03 00:32:52;;;;;;;53.22;16.45;;;3.40;99.90;;;;;;4650526;30;20227;-73
2023/03/03 00:35:29;;;;;;;63.28;17.02;;;3.30;99.90;;;;;;4666886;30;20228;-73
2023/03/03 00:38:00;;;;;;;46.03;16.02;;;3.30;99.90;;;;;;4661779;30;20327;-74
2023/03/03 00:40:34;;;;;;;51.65;17.80;;;3.30;99.90;;;;;;4663361;30;20217;-74
2023/03/03 00:43:00;;;;;;;51.58;16.92;;;3.30;99.90;;;;;;4651715;30;20201;-73
2023/03/03 00:45:49;;;;;;;47.42;16.50;;;3.30;99.90;;;;;;4675050;30;20201;-74
2023/03/03 00:48:49;;;;;;;71.35;18.00;;;3.20;99.90;;;;;;4650498;30;20221;-74
2023/03/03 00:51:30;;;;;;;62.20;15.80;;;3.20;99.90;;;;;;4673013;30;20240;-73
2023/03/03 00:53:58;;;;;;;60.35;16.35;;;3.20;99.90;;;;;;4676851;30;20298;-73
2023/03/03 00:56:24;;;;;;;49.60;17.73;;;3.20;99.90;;;;;;4664604;30;20687;-73
2023/03/03 00:58:50;;;;;;;52.58;16.75;;;3.20;99.90;;;;;;4672556;30;20224;-73
2023/03/03 01:01:18;;;;;;;69.10;17.15;;;3.10;99.90;;;;;;4651174;30;20216;-73
2023/03/03 01:03:48;;;;;;;56.50;17.15;;;3.10;99.90;;;;;;4659666;30;20200;-73
2023/03/03 01:06:14;;;;;;;104.30;17.67;;;3.10;99.90;;;;;;4664967;30;20195;-73
2023/03/03 01:08:40;;;;;;;128.13;18.10;;;3.10;99.90;;;;;;4656025;30;20292;-75
2023/03/03 01:11:15;;;;;;;63.13;16.63;;;3.10;99.90;;;;;;4662938;30;20197;-74
2023/03/03 01:13:43;;;;;;;43.83;16.42;;;3.10;99.90;;;;;;4654151;30;20218;-73
2023/03/03 01:16:09;;;;;;;83.28;16.00;;;3.10;99.90;;;;;;4656403;30;20277;-73
2023/03/03 01:18:36;;;;;;;76.10;15.48;;;3.10;99.90;;;;;;4670776;30;20276;-75
2023/03/03 01:21:02;;;;;;;43.10;14.02;;;3.20;99.90;;;;;;4650445;30;20260;-74
2023/03/03 01:23:28;;;;;;;69.10;14.88;;;3.20;99.90;;;;;;4647306;30;20252;-73
2023/03/03 01:25:53;;;;;;;95.22;14.73;;;3.20;99.90;;;;;;4664043;30;20660;-73
2023/03/03 01:28:19;;;;;;;99.30;14.52;;;3.10;99.90;;;;;;4654068;30;20585;-74
2023/03/03 01:30:45;;;;;;;64.57;12.05;;;3.10;99.90;;;;;;4681874;30;20538;-73
2023/03/03 01:33:11;;;;;;;47.58;11.15;;;3.10;99.90;;;;;;4666982;30;20614;-75
2023/03/03 01:35:42;;;;;;;49.67;12.80;;;3.00;99.90;;;;;;4662658;30;20189;-75
2023/03/03 01:38:07;;;;;;;38.55;13.65;;;3.00;99.90;;;;;;4650168;30;20239;-74
2023/03/03 01:40:33;;;;;;;50.90;13.27;;;2.90;99.90;;;;;;4681567;30;20617;-74
2023/03/03 01:43:01;;;;;;;34.72;13.95;;;2.90;99.90;;;;;;4678878;30;20727;-73
2023/03/03 01:45:41;;;;;;;32.65;14.63;;;2.80;99.90;;;;;;4652412;30;20291;-74
2023/03/03 01:48:21;;;;;;;82.97;14.13;;;2.80;99.90;;;;;;4660502;30;20220;-73
2023/03/03 01:50:55;;;;;;;59.22;13.13;;;2.80;99.90;;;;;;4649381;30;20232;-73
2023/03/03 01:53:27;;;;;;;30.92;13.40;;;2.80;99.90;;;;;;4671579;30;20228;-73
2023/03/03 01:55:53;;;;;;;35.35;12.82;;;2.80;99.90;;;;;;4669713;30;20641;-73
2023/03/03 01:58:25;;;;;;;35.10;13.20;;;2.80;99.90;;;;;;4656862;30;20199;-73
2023/03/03 02:00:56;;;;;;;32.67;11.52;;;2.70;99.90;;;;;;4652404;30;20189;-73
2023/03/03 02:03:23;;;;;;;63.55;12.15;;;2.70;99.90;;;;;;4669006;30;20252;-73
2023/03/03 02:05:51;;;;;;;36.58;13.43;;;2.70;99.90;;;;;;4671375;30;20228;-73
2023/03/03 02:08:25;;;;;;;56.42;12.57;;;2.70;99.90;;;;;;4664388;30;20299;-80
2023/03/03 02:10:51;;;;;;;57.47;11.50;;;2.70;99.90;;;;;;4663544;30;20209;-75
2023/03/03 02:13:17;;;;;;;22.65;12.00;;;2.70;99.90;;;;;;4652973;30;20246;-75
2023/03/03 02:15:43;;;;;;;24.10;13.07;;;2.70;99.90;;;;;;4672215;30;20192;-75
2023/03/03 02:18:15;;;;;;;23.08;11.38;;;2.70;99.90;;;;;;4667847;30;20247;-74
2023/03/03 02:21:11;;;;;;;24.45;12.15;;;2.70;99.90;;;;;;4652088;30;20228;-74
2023/03/03 02:24:00;;;;;;;25.48;13.10;;;2.60;99.90;;;;;;4674249;30;20200;-73
2023/03/03 02:26:28;;;;;;;23.50;12.18;;;2.60;99.90;;;;;;4651051;30;20341;-73
2023/03/03 02:28:59;;;;;;;26.35;13.23;;;2.60;99.90;;;;;;4656133;30;20194;-73
2023/03/03 02:31:29;;;;;;;23.60;12.75;;;2.60;99.90;;;;;;4652162;30;20196;-73
2023/03/03 02:33:56;;;;;;;23.60;12.10;;;2.60;99.90;;;;;;4650100;30;20195;-73
2023/03/03 02:36:25;;;;;;;27.42;12.95;;;2.60;99.90;;;;;;4666462;30;20196;-74
2023/03/03 02:39:16;;;;;;;23.45;11.85;;;2.60;99.90;;;;;;4674911;30;20195;-73
2023/03/03 02:41:57;;;;;;;20.77;11.95;;;2.60;99.90;;;;;;4679654;30;20204;-73
2023/03/03 02:44:31;;;;;;;20.27;11.15;;;2.70;99.90;;;;;;4663338;30;20188;-72
2023/03/03 02:46:58;;;;;;;21.85;11.95;;;2.60;99.90;;;;;;4632167;30;20246;-76
2023/03/03 02:49:26;;;;;;;19.35;10.93;;;2.60;99.90;;;;;;4679172;30;20255;-74
2023/03/03 02:51:53;;;;;;;21.33;11.10;;;2.60;99.90;;;;;;4668481;30;20283;-74
2023/03/03 02:54:20;;;;;;;19.42;11.15;;;2.60;99.90;;;;;;4665944;30;20229;-75
2023/03/03 02:56:46;;;;;;;19.00;10.80;;;2.70;99.90;;;;;;4655285;30;20209;-74
2023/03/03 02:59:13;;;;;;;19.63;11.40;;;2.70;99.90;;;;;;4640687;30;20194;-74
2023/03/03 03:01:45;;;;;;;16.83;9.60;;;2.70;99.90;;;;;;4648254;30;20189;-74
2023/03/03 03:04:19;;;;;;;18.33;9.85;;;2.70;99.90;;;;;;4665897;30;20208;-75
2023/03/03 03:06:48;;;;;;;17.70;9.55;;;2.70;99.90;;;;;;4658403;30;20568;-74
2023/03/03 03:09:17;;;;;;;17.80;10.02;;;2.60;99.90;;;;;;4650066;30;20623;-74
2023/03/03 03:11:43;;;;;;;19.48;9.50;;;2.70;99.90;;;;;;4650965;30;20190;-74
2023/03/03 03:14:12;;;;;;;14.07;9.55;;;2.60;99.90;;;;;;4647994;30;20189;-74
2023/03/03 03:16:39;;;;;;;16.88;10.00;;;2.60;99.90;;;;;;4652598;30;20228;-74
2023/03/03 03:19:05;;;;;;;19.35;9.40;;;2.60;99.90;;;;;;4661401;30;20189;-74
2023/03/03 03:21:32;;;;;;;18.55;8.95;;;2.60;99.90;;;;;;4653975;30;20197;-75
2023/03/03 03:23:59;;;;;;;17.30;9.27;;;2.60;99.90;;;;;;4661896;30;20290;-74
2023/03/03 03:26:25;;;;;;;18.23;8.90;;;2.70;99.90;;;;;;4636965;30;20343;-75
2023/03/03 03:28:52;;;;;;;14.75;8.93;;;2.60;99.90;;;;;;4649698;30;20224;-75
2023/03/03 03:31:19;;;;;;;13.05;8.70;;;2.60;99.90;;;;;;4651056;30;20276;-73
2023/03/03 03:33:46;;;;;;;15.90;9.27;;;2.60;99.90;;;;;;4635475;30;20598;-74
2023/03/03 03:36:12;;;;;;;15.40;8.70;;;2.60;99.90;;;;;;4649903;30;20190;-72
2023/03/03 03:38:40;;;;;;;14.23;7.50;;;2.60;99.90;;;;;;4650509;30;20208;-73
2023/03/03 03:41:07;;;;;;;17.02;8.63;;;2.50;99.90;;;;;;4650097;30;20288;-73
2023/03/03 03:43:34;;;;;;;15.85;8.30;;;2.60;99.90;;;;;;4643483;30;20649;-74
2023/03/03 03:46:00;;;;;;;12.60;8.13;;;2.50;99.90;;;;;;4678318;30;20197;-73
2023/03/03 03:48:27;;;;;;;15.25;9.30;;;2.40;99.90;;;;;;4647504;30;20243;-73
2023/03/03 03:50:54;;;;;;;21.35;11.23;;;2.50;99.90;;;;;;4650578;30;20224;-74
2023/03/03 03:53:22;;;;;;;20.40;11.65;;;2.40;99.90;;;;;;4655860;30;20244;-75
2023/03/03 03:55:48;;;;;;;22.52;12.48;;;2.40;99.90;;;;;;4665948;30;20192;-75
2023/03/03 03:58:16;;;;;;;28.48;13.50;;;2.40;99.90;;;;;;4659172;30;20205;-78
2023/03/03 04:00:45;;;;;;;26.90;13.65;;;2.40;99.90;;;;;;4649194;30;20731;-75
2023/03/03 04:03:13;;;;;;;24.13;13.70;;;2.40;99.90;;;;;;4653820;30;20208;-75
2023/03/03 04:05:40;;;;;;;24.80;13.45;;;2.40;99.90;;;;;;4667344;30;20197;-74
2023/03/03 04:08:07;;;;;;;25.27;13.77;;;2.40;99.90;;;;;;4662844;30;20238;-74
2023/03/03 04:10:34;;;;;;;23.27;12.52;;;2.40;99.90;;;;;;4648914;30;20208;-73
2023/03/03 04:12:59;;;;;;;21.63;12.02;;;2.40;99.90;;;;;;4652700;30;20199;-73
2023/03/03 04:15:26;;;;;;;20.17;11.35;;;2.40;99.90;;;;;;4649024;30;20181;-75
2023/03/03 04:17:53;;;;;;;21.38;11.68;;;2.40;99.90;;;;;;4656936;30;20232;-74
2023/03/03 04:20:19;;;;;;;20.30;10.90;;;2.40;99.90;;;;;;4640444;30;20681;-74
2023/03/03 04:22:45;;;;;;;16.20;9.70;;;2.40;99.90;;;;;;4649757;30;20189;-75
2023/03/03 04:25:15;;;;;;;17.52;9.43;;;2.40;99.90;;;;;;4638655;30;20204;-75
2023/03/03 04:27:43;;;;;;;13.70;8.60;;;2.40;99.90;;;;;;4653207;30;20237;-73
2023/03/03 04:30:12;;;;;;;13.88;8.98;;;2.50;99.90;;;;;;4650099;30;20190;-75
2023/03/03 04:32:39;;;;;;;17.63;8.75;;;2.40;99.90;;;;;;4647286;30;20194;-73
2023/03/03 04:35:08;;;;;;;14.45;8.20;;;2.50;99.90;;;;;;4650034;30;20193;-73
2023/03/03 04:37:37;;;;;;;16.67;8.38;;;2.40;99.90;;;;;;4648859;30;20209;-73
2023/03/03 04:40:05;;;;;;;12.60;8.30;;;2.40;99.90;;;;;;4653136;30;20289;-74
2023/03/03 04:42:32;;;;;;;14.80;8.32;;;2.40;99.90;;;;;;4664165;30;20292;-74
2023/03/03 04:44:57;;;;;;;19.08;8.32;;;2.40;99.90;;;;;;4667863;30;20197;-74
2023/03/03 04:47:23;;;;;;;14.48;7.43;;;2.40;99.90;;;;;;4648198;30;20576;-77
2023/03/03 04:49:49;;;;;;;12.88;7.88;;;2.40;99.90;;;;;;4647991;30;20668;-75
2023/03/03 04:52:15;;;;;;;14.43;8.40;;;2.40;99.90;;;;;;4650467;30;20196;-75
2023/03/03 04:54:41;;;;;;;16.27;8.65;;;2.40;99.90;;;;;;4661923;30;20236;-75
2023/03/03 04:57:08;;;;;;;19.35;8.18;;;2.40;99.90;;;;;;4666913;30;20201;-74
2023/03/03 04:59:35;;;;;;;14.55;7.47;;;2.40;99.90;;;;;;4664491;30;20189;-74
2023/03/03 05:02:03;;;;;;;15.05;7.60;;;2.40;99.90;;;;;;4666895;30;20212;-75
2023/03/03 05:04:29;;;;;;;15.05;7.90;;;2.40;99.90;;;;;;4649686;30;20200;-74
2023/03/03 05:06:56;;;;;;;11.85;7.40;;;2.30;99.90;;;;;;4648838;30;20229;-74
2023/03/03 05:09:22;;;;;;;10.02;6.97;;;2.30;99.90;;;;;;4661539;30;20616;-74
2023/03/03 05:11:48;;;;;;;15.18;7.47;;;2.30;99.90;;;;;;4682290;30;20197;-74
2023/03/03 05:14:13;;;;;;;12.20;7.03;;;2.30;99.90;;;;;;4666913;30;20205;-74
2023/03/03 05:16:39;;;;;;;16.35;7.32;;;2.30;99.90;;;;;;4648311;30;20284;-75
2023/03/03 05:19:05;;;;;;;11.90;7.20;;;2.30;99.90;;;;;;4659678;30;20207;-74
2023/03/03 05:21:30;;;;;;;12.52;7.10;;;2.30;99.90;;;;;;4672935;30;20648;-74
2023/03/03 05:23:56;;;;;;;13.25;7.68;;;2.30;99.90;;;;;;4670696;30;20205;-74
2023/03/03 05:26:22;;;;;;;20.15;7.60;;;2.40;99.90;;;;;;4650000;30;20201;-75
2023/03/03 05:28:48;;;;;;;12.88;7.55;;;2.40;99.90;;;;;;4671441;30;20237;-74
2023/03/03 05:31:13;;;;;;;11.30;6.60;;;2.30;99.90;;;;;;4638826;30;20647;-74
2023/03/03 05:33:39;;;;;;;13.10;7.35;;;2.30;99.90;;;;;;4675089;30;20615;-74
2023/03/03 05:36:05;;;;;;;14.40;6.88;;;2.30;99.90;;;;;;4685647;30;20193;-75
2023/03/03 05:38:31;;;;;;;13.35;6.88;;;2.30;99.90;;;;;;4664745;30;20198;-75
2023/03/03 05:40:56;;;;;;;13.93;6.80;;;2.40;99.90;;;;;;4650708;30;20262;-74
2023/03/03 05:43:22;;;;;;;12.70;7.13;;;2.30;99.90;;;;;;4657648;30;20294;-73
2023/03/03 05:45:56;;;;;;;10.40;6.55;;;2.30;99.90;;;;;;4684939;30;20631;-73
2023/03/03 05:48:22;;;;;;;13.93;7.13;;;2.30;99.90;;;;;;4682605;30;20223;-73
2023/03/03 05:50:48;;;;;;;19.88;6.95;;;2.30;99.90;;;;;;4684751;30;20566;-77
2023/03/03 05:53:14;;;;;;;11.77;7.20;;;2.30;99.90;;;;;;4665578;30;20336;-74
2023/03/03 05:55:40;;;;;;;12.88;7.25;;;2.30;99.90;;;;;;4666407;30;20204;-73
2023/03/03 05:58:05;;;;;;;11.63;7.18;;;2.30;99.90;;;;;;4665937;30;20198;-74
2023/03/03 06:00:31;;;;;;;13.55;7.32;;;2.30;99.90;;;;;;4664396;30;20213;-74
2023/03/03 06:02:57;;;;;;;13.70;6.82;;;2.30;99.90;;;;;;4641850;30;20569;-74
2023/03/03 06:05:23;;;;;;;11.88;6.25;;;2.30;99.90;;;;;;4668819;30;20289;-73
2023/03/03 06:07:48;;;;;;;13.88;6.65;;;2.40;99.90;;;;;;4665894;30;20213;-73
2023/03/03 06:10:14;;;;;;;12.43;7.20;;;2.30;99.90;;;;;;4666962;30;20186;-74
2023/03/03 06:12:45;;;;;;;11.98;6.97;;;2.30;99.90;;;;;;4664494;30;20198;-73
2023/03/03 06:15:11;;;;;;;15.23;8.02;;;2.30;99.90;;;;;;4665206;30;20202;-73
2023/03/03 06:17:36;;;;;;;12.02;7.57;;;2.30;99.90;;;;;;4665217;30;20206;-74
2023/03/03 06:20:03;;;;;;;11.13;7.05;;;2.40;99.90;;;;;;4684531;30;20650;-74
2023/03/03 06:22:29;;;;;;;17.33;8.73;;;2.40;99.90;;;;;;4666461;30;20651;-75
2023/03/03 06:24:55;;;;;;;12.70;7.03;;;2.40;99.90;;;;;;4682435;30;20193;-73
2023/03/03 06:27:21;;;;;;;16.48;8.85;;;2.40;99.90;;;;;;4676575;30;20247;-79
2023/03/03 06:29:47;;;;;;;17.33;9.07;;;2.40;99.90;;;;;;4654307;30;20730;-74
2023/03/03 06:32:13;;;;;;;14.52;8.60;;;2.40;99.90;;;;;;4664348;30;20295;-74
2023/03/03 06:34:39;;;;;;;16.42;9.25;;;2.40;99.90;;;;;;4662090;30;20220;-77
2023/03/03 06:37:04;;;;;;;16.08;8.82;;;2.40;99.90;;;;;;4665865;30;20224;-73
2023/03/03 06:39:30;;;;;;;15.80;8.38;;;2.40;99.90;;;;;;4663919;30;20209;-72
2023/03/03 06:41:56;;;;;;;14.75;8.43;;;2.40;99.90;;;;;;4658463;30;20189;-73
2023/03/03 06:44:22;;;;;;;18.10;8.60;;;2.40;99.90;;;;;;4666721;30;20279;-71
2023/03/03 06:46:48;;;;;;;16.08;8.85;;;2.40;99.90;;;;;;4666967;30;20253;-73
2023/03/03 06:49:14;;;;;;;16.15;9.38;;;2.40;99.90;;;;;;4678152;30;20209;-73
2023/03/03 06:51:40;;;;;;;18.35;8.93;;;2.50;99.90;;;;;;4669099;30;20181;-73
2023/03/03 06:54:14;;;;;;;18.60;9.88;;;2.50;99.90;;;;;;4667645;30;20313;-74
2023/03/03 06:56:41;;;;;;;16.70;8.63;;;2.50;99.90;;;;;;4650783;30;20183;-73
2023/03/03 06:59:16;;;;;;;17.00;9.63;;;2.50;99.90;;;;;;4653409;30;20289;-76
2023/03/03 07:01:43;;;;;;;20.65;8.95;;;2.60;99.90;;;;;;4664557;30;20199;-74
2023/03/03 07:04:18;;;;;;;12.23;8.45;;;2.50;99.90;;;;;;4677231;30;20220;-73
2023/03/03 07:06:44;;;;;;;16.83;8.88;;;2.60;99.90;;;;;;4684238;30;20208;-72
2023/03/03 07:09:22;;;;;;;17.17;9.60;;;2.60;99.90;;;;;;4669134;30;20272;-73
2023/03/03 07:11:50;;;;;;;18.23;10.15;;;2.60;99.90;;;;;;4683942;30;20196;-73
2023/03/03 07:14:18;;;;;;;16.73;10.23;;;2.70;99.90;;;;;;4681066;30;20655;-72
2023/03/03 07:16:44;;;;;;;16.20;10.18;;;2.80;99.90;;;;;;4653404;30;20201;-74
2023/03/03 07:19:28;;;;;;;14.50;9.88;;;2.90;99.90;;;;;;4667841;30;20185;-75
2023/03/03 07:21:53;;;;;;;19.70;10.43;;;3.10;99.90;;;;;;4666367;30;20220;-75
2023/03/03 07:24:27;;;;;;;17.08;10.88;;;3.20;99.90;;;;;;4678652;30;20228;-75
2023/03/03 07:27:06;;;;;;;17.95;9.60;;;3.40;99.90;;;;;;4678229;30;20249;-73
2023/03/03 07:29:33;;;;;;;20.75;9.80;;;3.60;99.90;;;;;;4649358;30;20639;-73
2023/03/03 07:32:01;;;;;;;16.85;9.73;;;3.70;99.90;;;;;;4665122;30;20197;-73
2023/03/03 07:34:36;;;;;;;18.45;9.93;;;3.80;99.90;;;;;;4659211;30;20252;-74
2023/03/03 07:37:29;;;;;;;16.20;9.07;;;4.00;99.90;;;;;;4655830;30;20250;-75
2023/03/03 07:39:56;;;;;;;23.80;9.52;;;4.10;99.90;;;;;;4655948;30;20305;-73
2023/03/03 07:42:35;;;;;;;15.52;9.63;;;4.10;99.90;;;;;;4665248;30;20189;-75
2023/03/03 07:45:29;;;;;;;18.30;9.93;;;4.10;99.90;;;;;;4633940;30;20202;-75
2023/03/03 07:48:03;;;;;;;17.45;9.98;;;4.10;99.90;;;;;;4676627;30;20217;-74
2023/03/03 07:50:29;;;;;;;17.48;9.35;;;4.10;99.90;;;;;;4664429;30;20212;-74
2023/03/03 07:53:00;;;;;;;18.30;7.68;;;4.10;99.90;;;;;;4666250;30;20280;-75
2023/03/03 07:55:37;;;;;;;14.63;7.90;;;4.10;99.90;;;;;;4667852;30;20185;-76
2023/03/03 07:58:15;;;;;;;14.35;7.60;;;4.10;99.90;;;;;;4680612;30;20220;-73
2023/03/03 08:01:18;;;;;;;15.07;7.28;;;4.10;99.90;;;;;;4677307;30;20288;-73
2023/03/03 08:03:45;;;;;;;13.50;6.97;;;4.10;99.90;;;;;;4660798;30;20542;-73
2023/03/03 08:06:44;;;;;;;20.63;6.65;;;4.10;99.90;;;;;;4666461;30;20272;-75
2023/03/03 08:09:10;;;;;;;12.30;6.85;;;4.10;99.90;;;;;;4669299;30;20232;-75
2023/03/03 08:12:13;;;;;;;15.32;6.57;;;4.20;99.90;;;;;;4665951;30;20576;-73
2023/03/03 08:14:39;;;;;;;17.40;6.55;;;4.20;99.90;;;;;;4663004;30;20659;-74
2023/03/03 08:17:21;;;;;;;15.45;6.43;;;4.20;99.90;;;;;;4660593;30;20201;-75
2023/03/03 08:19:48;;;;;;;15.88;6.85;;;4.20;99.90;;;;;;4668169;30;20205;-72
2023/03/03 08:22:29;;;;;;;13.43;7.20;;;4.30;99.90;;;;;;4662932;30;20732;-75
2023/03/03 08:24:55;;;;;;;15.05;6.70;;;4.20;99.90;;;;;;4644022;30;20273;-75
2023/03/03 08:27:21;;;;;;;15.52;6.82;;;4.20;99.90;;;;;;4664047;30;23020;-76
2023/03/03 08:29:48;;;;;;;12.10;7.20;;;4.30;99.90;;;;;;4649709;30;20567;-74
2023/03/03 08:32:15;;;;;;;19.67;7.68;;;4.30;99.90;;;;;;4664256;30;20628;-74
2023/03/03 08:34:40;;;;;;;20.60;8.48;;;4.30;99.90;;;;;;4669217;30;20200;-73
2023/03/03 08:37:06;;;;;;;13.88;7.88;;;4.30;99.90;;;;;;4650557;30;20202;-73
2023/03/03 08:39:32;;;;;;;17.02;7.80;;;4.30;99.90;;;;;;4663628;30;20220;-75
2023/03/03 08:41:58;;;;;;;15.20;7.60;;;4.30;99.90;;;;;;4649714;30;20671;-73
2023/03/03 08:44:23;;;;;;;12.20;7.55;;;4.40;99.90;;;;;;4634268;30;20198;-73
2023/03/03 08:46:49;;;;;;;13.93;8.13;;;4.40;99.90;;;;;;4665072;30;20295;-75
2023/03/03 08:49:15;;;;;;;12.73;7.18;;;4.40;99.90;;;;;;4676268;30;20532;-74
2023/03/03 08:51:41;;;;;;;13.73;8.18;;;4.40;99.90;;;;;;4665191;30;20201;-74
2023/03/03 08:54:07;;;;;;;15.80;8.05;;;4.40;99.90;;;;;;4662122;30;20284;-74
2023/03/03 08:56:33;;;;;;;14.38;8.95;;;4.50;99.90;;;;;;4652554;30;20635;-74
2023/03/03 08:58:58;;;;;;;17.20;8.88;;;4.50;99.90;;;;;;4664288;30;20622;-74
2023/03/03 09:01:24;;;;;;;21.88;8.38;;;4.60;99.90;;;;;;4665105;30;20614;-75
2023/03/03 09:03:50;;;;;;;22.05;9.75;;;4.60;99.90;;;;;;4661539;30;20235;-76
2023/03/03 09:06:16;;;;;;;17.05;8.68;;;4.60;99.90;;;;;;4670577;30;20200;-75
2023/03/03 09:08:41;;;;;;;15.02;8.23;;;4.70;99.90;;;;;;4655615;30;20217;-72
2023/03/03 09:11:18;;;;;;;13.68;8.05;;;4.70;99.90;;;;;;4670078;30;20219;-75
2023/03/03 09:13:44;;;;;;;16.02;8.88;;;4.80;99.90;;;;;;4653183;30;20561;-75
2023/03/03 09:16:14;;;;;;;16.60;10.05;;;4.80;99.90;;;;;;4666326;30;20203;-76
2023/03/03 09:18:41;;;;;;;18.52;9.68;;;4.80;99.90;;;;;;4642523;30;20324;-75
2023/03/03 09:21:21;;;;;;;14.45;9.38;;;4.80;99.90;;;;;;4638193;30;20193;-73
2023/03/03 09:23:56;;;;;;;16.15;8.85;;;4.90;99.90;;;;;;4669575;30;20200;-74
2023/03/03 09:26:39;;;;;;;16.38;9.40;;;4.90;99.90;;;;;;4670182;30;20591;-74
2023/03/03 09:29:13;;;;;;;19.20;9.63;;;4.90;99.90;;;;;;4682520;30;20357;-73
2023/03/03 09:31:43;;;;;;;23.40;9.18;;;5.00;99.90;;;;;;4663355;30;20557;-75
2023/03/03 09:34:23;;;;;;;19.52;9.15;;;5.00;99.90;;;;;;4677645;30;20185;-75
2023/03/03 09:36:53;;;;;;;17.70;9.13;;;5.10;99.90;;;;;;4670690;30;20204;-74
2023/03/03 09:39:26;;;;;;;21.75;9.57;;;5.20;99.90;;;;;;4667219;30;20260;-80
2023/03/03 09:41:57;;;;;;;19.77;9.55;;;5.30;99.90;;;;;;4658521;30;20194;-74
2023/03/03 09:44:53;;;;;;;18.80;10.90;;;5.40;99.90;;;;;;4680187;30;20568;-75
2023/03/03 09:47:37;;;;;;;15.13;9.60;;;5.60;99.90;;;;;;4665310;30;20300;-78
2023/03/03 09:50:28;;;;;;;20.75;9.27;;;5.70;99.90;;;;;;4670733;30;20251;-75
2023/03/03 09:53:27;;;;;;;16.63;8.80;;;5.90;99.90;;;;;;4679404;30;20189;-74
2023/03/03 09:56:12;;;;;;;38.85;14.93;;;5.90;99.90;;;;;;4650198;30;20728;-73
2023/03/03 09:59:05;;;;;;;19.55;9.07;;;6.00;99.90;;;;;;4674266;30;20208;-73
2023/03/03 10:02:32;;;;;;;17.45;9.27;;;6.10;99.90;;;;;;4669675;30;20189;-73
2023/03/03 10:05:14;;;;;;;15.93;8.05;;;6.20;99.90;;;;;;4613673;30;20235;-74
2023/03/03 10:08:05;;;;;;;15.38;7.18;;;6.20;99.90;;;;;;4650152;30;20221;-74
2023/03/03 10:10:39;;;;;;;15.27;6.38;;;6.30;99.90;;;;;;4651200;30;20205;-73
2023/03/03 10:13:34;;;;;;;11.32;5.43;;;6.30;99.90;;;;;;4644786;30;20265;-73
2023/03/03 10:16:18;;;;;;;10.10;4.97;;;6.30;99.90;;;;;;4657843;30;20607;-74
2023/03/03 10:18:59;;;;;;;7.32;4.30;;;6.40;99.90;;;;;;4661499;30;20231;-74
2023/03/03 10:21:39;;;;;;;9.23;4.25;;;6.50;99.90;;;;;;4666377;30;20554;-73
2023/03/03 10:24:26;;;;;;;12.93;5.07;;;6.50;99.90;;;;;;4657958;30;20265;-74
2023/03/03 10:27:00;;;;;;;11.52;4.60;;;6.60;99.90;;;;;;4650756;30;20695;-73
2023/03/03 10:29:33;;;;;;;9.18;4.30;;;6.60;99.90;;;;;;4677666;30;20276;-75
2023/03/03 10:32:48;;;;;;;14.38;4.45;;;6.70;99.90;;;;;;4665437;30;20182;-75
2023/03/03 10:35:17;;;;;;;12.68;4.82;;;6.70;99.90;;;;;;4652766;30;20248;-74
2023/03/03 10:38:14;;;;;;;9.35;4.40;;;6.80;99.90;;;;;;4666121;30;20221;-74
2023/03/03 10:41:06;;;;;;;5.70;3.53;;;6.80;99.90;;;;;;4669373;30;20189;-74
2023/03/03 10:43:53;;;;;;;10.30;3.42;;;6.90;99.90;;;;;;4661620;30;20201;-77
2023/03/03 10:46:28;;;;;;;8.52;3.05;;;6.90;99.90;;;;;;4662277;30;20202;-74
2023/03/03 10:49:13;;;;;;;11.20;3.35;;;7.00;99.90;;;;;;4658252;30;20701;-74
2023/03/03 10:52:06;;;;;;;7.45;2.90;;;7.00;99.90;;;;;;4671850;30;20231;-76
2023/03/03 10:54:40;;;;;;;12.85;4.55;;;7.10;99.90;;;;;;4662846;30;20316;-74
2023/03/03 10:57:47;;;;;;;6.85;2.70;;;7.20;99.90;;;;;;4667153;30;20177;-74
2023/03/03 11:00:21;;;;;;;7.28;2.58;;;7.30;99.90;;;;;;4610091;31;20230;-75
2023/03/03 11:02:56;;;;;;;5.93;1.90;;;7.40;99.90;;;;;;4646941;30;20303;-72
2023/03/03 11:05:50;;;;;;;7.28;1.70;;;7.40;99.90;;;;;;4664919;30;20231;-74
2023/03/03 11:08:28;;;;;;;4.22;1.58;;;7.50;99.90;;;;;;4668305;30;20216;-76
2023/03/03 11:11:30;;;;;;;7.22;1.80;;;7.50;99.90;;;;;;4667170;30;20651;-73
2023/03/03 11:14:37;;;;;;;8.07;1.80;;;7.50;99.90;;;;;;4640282;30;20493;-75
2023/03/03 11:17:41;;;;;;;4.13;1.20;;;7.50;99.90;;;;;;4629115;30;20268;-73
2023/03/03 11:20:40;;;;;;;7.75;1.50;;;7.60;99.90;;;;;;4653919;30;20280;-74
2023/03/03 11:23:18;;;;;;;3.78;1.55;;;7.90;99.90;;;;;;4664201;30;20230;-73
2023/03/03 11:26:06;;;;;;;7.25;1.52;;;8.10;99.90;;;;;;4683284;30;20678;-73
2023/03/03 11:28:58;;;;;;;7.78;1.67;;;8.20;99.90;;;;;;4651153;30;20228;-73
2023/03/03 11:31:37;;;;;;;9.35;1.50;;;8.20;99.90;;;;;;4655283;30;20246;-76
2023/03/03 11:34:35;;;;;;;3.92;1.27;;;8.30;99.90;;;;;;4680939;30;20216;-73
2023/03/03 11:37:09;;;;;;;3.10;1.10;;;8.20;99.90;;;;;;4654436;30;20648;-73
2023/03/03 11:39:36;;;;;;;5.72;1.40;;;8.20;99.90;;;;;;4672353;30;20185;-74
2023/03/03 11:42:23;;;;;;;3.90;1.10;;;8.20;99.90;;;;;;4653477;30;20697;-73
2023/03/03 11:44:55;;;;;;;8.88;1.23;;;8.20;99.90;;;;;;4659012;30;20228;-74
2023/03/03 11:47:24;;;;;;;5.85;1.40;;;8.20;99.90;;;;;;4665995;30;20209;-76
2023/03/03 11:50:20;;;;;;;12.82;4.57;;;8.30;99.90;;;;;;4635842;30;21074;-73
2023/03/03 11:53:22;;;;;;;4.38;1.20;;;8.50;99.90;;;;;;4629227;30;21111;-76
2023/03/03 11:55:55;;;;;;;5.88;1.33;;;8.90;99.90;;;;;;4659278;30;20208;-72
2023/03/03 11:58:30;;;;;;;4.53;1.23;;;9.30;99.90;;;;;;4670816;30;20281;-75
2023/03/03 12:01:14;;;;;;;7.38;1.10;;;9.60;99.90;;;;;;4674349;30;20196;-74
2023/03/03 12:03:44;;;;;;;4.97;1.08;;;9.80;99.90;;;;;;4654533;30;20246;-74
2023/03/03 12:06:49;;;;;;;6.15;1.17;;;9.90;99.90;;;;;;4665234;30;20329;-74
2023/03/03 12:09:30;;;;;;;4.65;1.35;;;9.90;99.90;;;;;;4665433;30;20201;-73
2023/03/03 12:12:10;;;;;;;5.88;1.42;;;9.90;99.90;;;;;;4666825;30;20181;-74
2023/03/03 12:14:52;;;;;;;9.77;1.45;;;9.80;99.90;;;;;;4653926;30;20224;-75
2023/03/03 12:17:42;;;;;;;19.73;8.57;;;9.80;99.90;;;;;;4653276;30;20203;-77
2023/03/03 12:20:17;;;;;;;7.28;1.88;;;9.80;99.90;;;;;;4663140;30;20214;-74
2023/03/03 12:23:03;;;;;;;8.60;1.83;;;9.80;99.90;;;;;;4650886;30;20189;-75
2023/03/03 12:25:45;;;;;;;6.47;1.50;;;9.80;99.90;;;;;;4681984;30;20195;-74
2023/03/03 12:28:18;;;;;;;7.40;1.85;;;9.70;99.90;;;;;;4661581;30;20213;-74
2023/03/03 12:30:58;;;;;;;7.35;1.77;;;9.70;99.90;;;;;;4670424;30;20201;-74
2023/03/03 12:34:03;;;;;;;10.35;2.10;;;9.70;99.90;;;;;;4663878;30;20481;-74
2023/03/03 12:36:32;;;;;;;6.03;1.63;;;9.60;99.90;;;;;;4655584;30;20213;-74
2023/03/03 12:39:19;;;;;;;8.45;1.55;;;9.60;99.90;;;;;;4646939;30;20577;-74
2023/03/03 12:42:06;;;;;;;8.38;1.70;;;9.50;99.90;;;;;;4648673;30;20194;-73
2023/03/03 12:44:35;;;;;;;6.47;1.17;;;9.50;99.90;;;;;;4665097;30;20719;-74
2023/03/03 12:47:22;;;;;;;10.25;1.60;;;9.50;99.90;;;;;;4649414;30;20280;-74
2023/03/03 12:50:06;;;;;;;9.85;1.90;;;9.50;99.90;;;;;;4652656;30;21048;-74
2023/03/03 12:52:51;;;;;;;16.33;2.00;;;9.50;99.90;;;;;;4664214;30;20250;-74
2023/03/03 12:55:23;;;;;;;8.35;1.52;;;9.50;99.90;;;;;;4671587;30;20239;-75
2023/03/03 12:58:01;;;;;;;8.70;1.83;;;9.50;99.90;;;;;;4662783;30;20285;-74
2023/03/03 13:00:29;;;;;;;12.20;1.98;;;9.60;99.90;;;;;;4664085;30;20224;-74
2023/03/03 13:03:17;;;;;;;10.05;1.55;;;9.70;99.90;;;;;;4666421;30;20220;-73
2023/03/03 13:05:49;;;;;;;10.32;1.73;;;9.80;99.90;;;;;;4664081;30;20202;-74
2023/03/03 13:08:40;;;;;;;13.95;2.10;;;9.90;99.90;;;;;;4660791;30;20236;-75
2023/03/03 13:11:33;;;;;;;14.43;2.08;;;9.90;99.90;;;;;;4649824;30;20239;-73
2023/03/03 13:14:25;;;;;;;19.00;2.20;;;9.90;99.90;;;;;;4663696;30;20197;-74
2023/03/03 13:17:15;;;;;;;10.65;2.13;;;9.90;99.90;;;;;;4664195;30;20213;-74